sensor_id;sensor_type;location;lat;lon;timestamp;P1;durP1;ratioP1;P2;durP2;ratioP2
76155;SDS011;64906;51.290;7.348;2023-05-10T00:01:31;56.30;;;43.57;;
76155;SDS011;64906;51.290;7.348;2023-05-10T00:03:56;53.92;;;39.03;;
76155;SDS011;64906;51.290;7.348;2023-05-10T00:06:21;54.07;;;39.60;;
76155;SDS011;64906;51.290;7.348;2023-05-10T00:08:47;53.17;;;38.80;;
76155;SDS011;64906;51.290;7.348;2023-05-10T00:11:12;54.00;;;38.63;;
76155;SDS011;64906;51.290;7.348;2023-05-10T00:13:37;53.87;;;39.20;;
76155;SDS011;64906;51.290;7.348;2023-05-10T00:16:02;53.67;;;39.37;;
76155;SDS011;64906;51.290;7.348;2023-05-10T00:18:28;55.55;;;38.95;;
76155;SDS011;64906;51.290;7.348;2023-05-10T00:20:53;51.43;;;37.47;;
76155;SDS011;64906;51.290;7.348;2023-05-10T00:23:18;54.10;;;39.60;;
76155;SDS011;64906;51.290;7.348;2023-05-10T00:25:44;52.17;;;37.55;;
76155;SDS011;64906;51.290;7.348;2023-05-10T00:28:09;48.90;;;36.80;;
76155;SDS011;64906;51.290;7.348;2023-05-10T00:30:35;53.03;;;38.03;;
76155;SDS011;64906;51.290;7.348;2023-05-10T00:33:00;51.88;;;37.75;;
76155;SDS011;64906;51.290;7.348;2023-05-10T00:35:25;49.50;;;36.30;;
76155;SDS011;64906;51.290;7.348;2023-05-10T00:37:51;52.25;;;38.20;;
76155;SDS011;64906;51.290;7.348;2023-05-10T00:40:16;52.13;;;40.83;;
76155;SDS011;64906;51.290;7.348;2023-05-10T00:42:41;49.72;;;37.35;;
76155;SDS011;64906;51.290;7.348;2023-05-10T00:45:07;49.17;;;36.63;;
76155;SDS011;64906;51.290;7.348;2023-05-10T00:47:32;50.20;;;36.80;;
76155;SDS011;64906;51.290;7.348;2023-05-10T00:49:59;51.40;;;36.92;;
76155;SDS011;64906;51.290;7.348;2023-05-10T00:52:25;48.10;;;34.47;;
76155;SDS011;64906;51.290;7.348;2023-05-10T00:54:52;49.42;;;36.42;;
76155;SDS011;64906;51.290;7.348;2023-05-10T00:57:18;48.85;;;35.53;;
76155;SDS011;64906;51.290;7.348;2023-05-10T00:59:43;46.35;;;34.40;;
76155;SDS011;64906;51.290;7.348;2023-05-10T01:02:09;49.53;;;38.17;;
76155;SDS011;64906;51.290;7.348;2023-05-10T01:04:34;47.03;;;34.60;;
76155;SDS011;64906;51.290;7.348;2023-05-10T01:07:00;48.25;;;35.42;;
76155;SDS011;64906;51.290;7.348;2023-05-10T01:09:26;46.63;;;34.15;;
76155;SDS011;64906;51.290;7.348;2023-05-10T01:11:52;50.90;;;38.72;;
76155;SDS011;64906;51.290;7.348;2023-05-10T01:14:19;48.33;;;34.05;;
76155;SDS011;64906;51.290;7.348;2023-05-10T01:16:45;48.72;;;35.13;;
76155;SDS011;64906;51.290;7.348;2023-05-10T01:19:30;48.05;;;34.95;;
76155;SDS011;64906;51.290;7.348;2023-05-10T01:22:16;47.45;;;34.72;;
76155;SDS011;64906;51.290;7.348;2023-05-10T01:24:51;44.70;;;32.90;;
76155;SDS011;64906;51.290;7.348;2023-05-10T01:27:47;46.20;;;33.60;;
76155;SDS011;64906;51.290;7.348;2023-05-10T01:35:43;45.47;;;33.25;;
76155;SDS011;64906;51.290;7.348;2023-05-10T01:40:58;44.35;;;33.63;;
76155;SDS011;64906;51.290;7.348;2023-05-10T01:43:43;44.03;;;32.25;;
76155;SDS011;64906;51.290;7.348;2023-05-10T01:46:20;44.10;;;32.40;;
76155;SDS011;64906;51.290;7.348;2023-05-10T01:48:58;45.97;;;33.10;;
76155;SDS011;64906;51.290;7.348;2023-05-10T01:51:27;44.17;;;33.15;;
76155;SDS011;64906;51.290;7.348;2023-05-10T01:54:00;43.95;;;32.05;;
76155;SDS011;64906;51.290;7.348;2023-05-10T01:56:28;43.88;;;31.92;;
76155;SDS011;64906;51.290;7.348;2023-05-10T01:58:56;41.67;;;32.08;;
76155;SDS011;64906;51.290;7.348;2023-05-10T02:01:23;42.63;;;31.77;;
76155;SDS011;64906;51.290;7.348;2023-05-10T02:03:51;42.83;;;31.70;;
76155;SDS011;64906;51.290;7.348;2023-05-10T02:06:18;44.13;;;32.22;;
76155;SDS011;64906;51.290;7.348;2023-05-10T02:08:45;42.22;;;31.25;;
76155;SDS011;64906;51.290;7.348;2023-05-10T02:11:12;42.05;;;30.83;;
76155;SDS011;64906;51.290;7.348;2023-05-10T02:13:39;42.03;;;30.92;;
76155;SDS011;64906;51.290;7.348;2023-05-10T02:16:06;42.58;;;30.65;;
76155;SDS011;64906;51.290;7.348;2023-05-10T02:18:33;41.35;;;30.35;;
76155;SDS011;64906;51.290;7.348;2023-05-10T02:21:01;41.85;;;30.17;;
76155;SDS011;64906;51.290;7.348;2023-05-10T02:23:27;43.60;;;30.80;;
76155;SDS011;64906;51.290;7.348;2023-05-10T02:25:53;41.03;;;30.10;;
76155;SDS011;64906;51.290;7.348;2023-05-10T02:28:20;42.00;;;32.55;;
76155;SDS011;64906;51.290;7.348;2023-05-10T02:30:47;40.90;;;30.42;;
76155;SDS011;64906;51.290;7.348;2023-05-10T02:33:13;39.20;;;29.23;;
76155;SDS011;64906;51.290;7.348;2023-05-10T02:35:39;40.30;;;29.92;;
76155;SDS011;64906;51.290;7.348;2023-05-10T02:38:05;44.08;;;30.20;;
76155;SDS011;64906;51.290;7.348;2023-05-10T02:40:32;39.88;;;29.35;;
76155;SDS011;64906;51.290;7.348;2023-05-10T02:42:58;38.22;;;28.10;;
76155;SDS011;64906;51.290;7.348;2023-05-10T02:45:27;40.35;;;29.63;;
76155;SDS011;64906;51.290;7.348;2023-05-10T02:47:55;38.45;;;29.00;;
76155;SDS011;64906;51.290;7.348;2023-05-10T02:50:21;39.80;;;29.30;;
76155;SDS011;64906;51.290;7.348;2023-05-10T02:52:49;39.70;;;28.85;;
76155;SDS011;64906;51.290;7.348;2023-05-10T02:55:19;42.20;;;30.38;;
76155;SDS011;64906;51.290;7.348;2023-05-10T02:57:59;38.75;;;28.83;;
76155;SDS011;64906;51.290;7.348;2023-05-10T03:00:26;38.40;;;27.60;;
76155;SDS011;64906;51.290;7.348;2023-05-10T03:02:51;37.95;;;27.77;;
76155;SDS011;64906;51.290;7.348;2023-05-10T03:05:17;40.42;;;28.52;;
76155;SDS011;64906;51.290;7.348;2023-05-10T03:07:43;38.30;;;27.85;;
76155;SDS011;64906;51.290;7.348;2023-05-10T03:10:09;37.90;;;28.25;;
76155;SDS011;64906;51.290;7.348;2023-05-10T03:12:41;37.05;;;27.13;;
76155;SDS011;64906;51.290;7.348;2023-05-10T03:17:54;38.33;;;27.50;;
76155;SDS011;64906;51.290;7.348;2023-05-10T03:20:33;36.30;;;26.52;;
76155;SDS011;64906;51.290;7.348;2023-05-10T03:23:10;36.53;;;27.08;;
76155;SDS011;64906;51.290;7.348;2023-05-10T03:25:38;36.33;;;26.98;;
76155;SDS011;64906;51.290;7.348;2023-05-10T03:28:05;39.03;;;29.50;;
76155;SDS011;64906;51.290;7.348;2023-05-10T03:30:31;36.97;;;26.95;;
76155;SDS011;64906;51.290;7.348;2023-05-10T03:33:03;35.75;;;26.08;;
76155;SDS011;64906;51.290;7.348;2023-05-10T03:35:29;35.13;;;25.90;;
76155;SDS011;64906;51.290;7.348;2023-05-10T03:37:55;35.70;;;25.90;;
76155;SDS011;64906;51.290;7.348;2023-05-10T03:40:20;34.90;;;26.67;;
76155;SDS011;64906;51.290;7.348;2023-05-10T03:42:45;38.43;;;26.93;;
76155;SDS011;64906;51.290;7.348;2023-05-10T03:45:10;33.87;;;25.13;;
76155;SDS011;64906;51.290;7.348;2023-05-10T03:47:36;33.58;;;24.65;;
76155;SDS011;64906;51.290;7.348;2023-05-10T03:50:01;34.97;;;26.60;;
76155;SDS011;64906;51.290;7.348;2023-05-10T03:52:27;36.13;;;25.08;;
76155;SDS011;64906;51.290;7.348;2023-05-10T03:54:52;35.67;;;25.77;;
76155;SDS011;64906;51.290;7.348;2023-05-10T03:57:17;34.80;;;25.23;;
76155;SDS011;64906;51.290;7.348;2023-05-10T03:59:43;36.37;;;26.17;;
76155;SDS011;64906;51.290;7.348;2023-05-10T04:02:08;33.47;;;25.10;;
76155;SDS011;64906;51.290;7.348;2023-05-10T04:04:33;33.27;;;25.33;;
76155;SDS011;64906;51.290;7.348;2023-05-10T04:06:59;34.97;;;25.00;;
76155;SDS011;64906;51.290;7.348;2023-05-10T04:09:24;32.83;;;23.93;;
76155;SDS011;64906;51.290;7.348;2023-05-10T04:11:50;33.05;;;24.70;;
76155;SDS011;64906;51.290;7.348;2023-05-10T04:14:15;31.63;;;23.98;;
76155;SDS011;64906;51.290;7.348;2023-05-10T04:16:41;35.92;;;24.88;;
76155;SDS011;64906;51.290;7.348;2023-05-10T04:19:06;32.53;;;24.20;;
76155;SDS011;64906;51.290;7.348;2023-05-10T04:21:32;32.97;;;24.58;;
76155;SDS011;64906;51.290;7.348;2023-05-10T04:23:57;34.87;;;24.73;;
76155;SDS011;64906;51.290;7.348;2023-05-10T04:26:23;32.67;;;24.23;;
76155;SDS011;64906;51.290;7.348;2023-05-10T04:28:49;32.17;;;23.80;;
76155;SDS011;64906;51.290;7.348;2023-05-10T04:31:15;32.60;;;23.57;;
76155;SDS011;64906;51.290;7.348;2023-05-10T04:33:40;31.15;;;23.63;;
76155;SDS011;64906;51.290;7.348;2023-05-10T04:36:05;33.60;;;24.83;;
76155;SDS011;64906;51.290;7.348;2023-05-10T04:38:31;31.98;;;23.13;;
76155;SDS011;64906;51.290;7.348;2023-05-10T04:41:06;32.35;;;23.23;;
76155;SDS011;64906;51.290;7.348;2023-05-10T04:43:33;31.65;;;23.13;;
76155;SDS011;64906;51.290;7.348;2023-05-10T04:45:58;32.83;;;23.65;;
76155;SDS011;64906;51.290;7.348;2023-05-10T04:48:24;32.00;;;23.40;;
76155;SDS011;64906;51.290;7.348;2023-05-10T04:50:49;30.40;;;22.70;;
76155;SDS011;64906;51.290;7.348;2023-05-10T04:53:14;32.10;;;23.07;;
76155;SDS011;64906;51.290;7.348;2023-05-10T04:55:40;28.33;;;21.50;;
76155;SDS011;64906;51.290;7.348;2023-05-10T04:58:05;30.37;;;23.27;;
76155;SDS011;64906;51.290;7.348;2023-05-10T05:00:30;32.47;;;25.63;;
76155;SDS011;64906;51.290;7.348;2023-05-10T05:02:56;30.10;;;21.88;;
76155;SDS011;64906;51.290;7.348;2023-05-10T05:05:21;31.03;;;22.43;;
76155;SDS011;64906;51.290;7.348;2023-05-10T05:07:46;29.30;;;22.47;;
76155;SDS011;64906;51.290;7.348;2023-05-10T05:10:12;29.40;;;21.90;;
76155;SDS011;64906;51.290;7.348;2023-05-10T05:12:37;31.67;;;22.95;;
76155;SDS011;64906;51.290;7.348;2023-05-10T05:15:03;29.57;;;21.80;;
76155;SDS011;64906;51.290;7.348;2023-05-10T05:17:30;30.13;;;22.15;;
76155;SDS011;64906;51.290;7.348;2023-05-10T05:19:55;29.95;;;21.73;;
76155;SDS011;64906;51.290;7.348;2023-05-10T05:22:20;30.92;;;22.58;;
76155;SDS011;64906;51.290;7.348;2023-05-10T05:24:52;29.52;;;21.20;;
76155;SDS011;64906;51.290;7.348;2023-05-10T05:27:18;30.27;;;22.27;;
76155;SDS011;64906;51.290;7.348;2023-05-10T05:29:43;29.70;;;21.07;;
76155;SDS011;64906;51.290;7.348;2023-05-10T05:32:08;30.48;;;21.65;;
76155;SDS011;64906;51.290;7.348;2023-05-10T05:34:34;28.73;;;20.90;;
76155;SDS011;64906;51.290;7.348;2023-05-10T05:36:59;28.58;;;21.38;;
76155;SDS011;64906;51.290;7.348;2023-05-10T05:39:24;29.47;;;21.80;;
76155;SDS011;64906;51.290;7.348;2023-05-10T05:41:49;27.97;;;20.43;;
76155;SDS011;64906;51.290;7.348;2023-05-10T05:44:15;28.77;;;21.40;;
76155;SDS011;64906;51.290;7.348;2023-05-10T05:46:40;29.83;;;21.67;;
76155;SDS011;64906;51.290;7.348;2023-05-10T05:49:05;28.47;;;19.67;;
76155;SDS011;64906;51.290;7.348;2023-05-10T05:51:31;29.23;;;21.17;;
76155;SDS011;64906;51.290;7.348;2023-05-10T05:53:56;27.23;;;20.03;;
76155;SDS011;64906;51.290;7.348;2023-05-10T05:56:21;27.53;;;20.57;;
76155;SDS011;64906;51.290;7.348;2023-05-10T05:58:52;27.85;;;20.42;;
76155;SDS011;64906;51.290;7.348;2023-05-10T06:01:17;28.50;;;20.73;;
76155;SDS011;64906;51.290;7.348;2023-05-10T06:03:43;27.85;;;19.63;;
76155;SDS011;64906;51.290;7.348;2023-05-10T06:06:08;26.63;;;19.63;;
76155;SDS011;64906;51.290;7.348;2023-05-10T06:08:34;27.73;;;20.38;;
76155;SDS011;64906;51.290;7.348;2023-05-10T06:10:59;27.13;;;19.80;;
76155;SDS011;64906;51.290;7.348;2023-05-10T06:13:25;27.88;;;20.02;;
76155;SDS011;64906;51.290;7.348;2023-05-10T06:15:56;26.15;;;19.85;;
76155;SDS011;64906;51.290;7.348;2023-05-10T06:18:22;26.35;;;19.95;;
76155;SDS011;64906;51.290;7.348;2023-05-10T06:20:49;28.80;;;19.58;;
76155;SDS011;64906;51.290;7.348;2023-05-10T06:23:14;25.70;;;19.63;;
76155;SDS011;64906;51.290;7.348;2023-05-10T06:25:40;27.17;;;20.13;;
76155;SDS011;64906;51.290;7.348;2023-05-10T06:28:05;25.80;;;19.03;;
76155;SDS011;64906;51.290;7.348;2023-05-10T06:30:30;26.55;;;19.95;;
76155;SDS011;64906;51.290;7.348;2023-05-10T06:32:56;26.70;;;19.37;;
76155;SDS011;64906;51.290;7.348;2023-05-10T06:35:21;26.30;;;19.80;;
76155;SDS011;64906;51.290;7.348;2023-05-10T06:37:47;26.33;;;19.67;;
76155;SDS011;64906;51.290;7.348;2023-05-10T06:40:12;26.47;;;19.83;;
76155;SDS011;64906;51.290;7.348;2023-05-10T06:42:37;24.90;;;18.92;;
76155;SDS011;64906;51.290;7.348;2023-05-10T06:45:03;24.97;;;18.87;;
76155;SDS011;64906;51.290;7.348;2023-05-10T06:47:28;25.50;;;18.88;;
76155;SDS011;64906;51.290;7.348;2023-05-10T06:49:54;24.67;;;18.70;;
76155;SDS011;64906;51.290;7.348;2023-05-10T06:52:19;25.33;;;19.05;;
76155;SDS011;64906;51.290;7.348;2023-05-10T06:54:44;24.53;;;18.87;;
76155;SDS011;64906;51.290;7.348;2023-05-10T06:57:10;27.17;;;20.80;;
76155;SDS011;64906;51.290;7.348;2023-05-10T06:59:35;25.33;;;19.27;;
76155;SDS011;64906;51.290;7.348;2023-05-10T07:02:01;25.58;;;18.33;;
76155;SDS011;64906;51.290;7.348;2023-05-10T07:04:27;26.48;;;19.05;;
76155;SDS011;64906;51.290;7.348;2023-05-10T07:06:52;23.83;;;18.23;;
76155;SDS011;64906;51.290;7.348;2023-05-10T07:09:18;24.10;;;17.70;;
76155;SDS011;64906;51.290;7.348;2023-05-10T07:11:43;25.83;;;20.23;;
76155;SDS011;64906;51.290;7.348;2023-05-10T07:14:08;25.60;;;18.47;;
76155;SDS011;64906;51.290;7.348;2023-05-10T07:16:34;25.27;;;19.00;;
76155;SDS011;64906;51.290;7.348;2023-05-10T07:18:59;24.48;;;18.73;;
76155;SDS011;64906;51.290;7.348;2023-05-10T07:21:24;24.50;;;18.13;;
76155;SDS011;64906;51.290;7.348;2023-05-10T07:23:53;24.00;;;17.48;;
76155;SDS011;64906;51.290;7.348;2023-05-10T07:26:18;23.93;;;17.83;;
76155;SDS011;64906;51.290;7.348;2023-05-10T07:28:44;23.88;;;17.92;;
76155;SDS011;64906;51.290;7.348;2023-05-10T07:31:09;23.57;;;17.73;;
76155;SDS011;64906;51.290;7.348;2023-05-10T07:33:35;23.17;;;16.93;;
76155;SDS011;64906;51.290;7.348;2023-05-10T07:36:00;23.20;;;17.33;;
76155;SDS011;64906;51.290;7.348;2023-05-10T07:38:25;23.40;;;17.60;;
76155;SDS011;64906;51.290;7.348;2023-05-10T07:40:50;23.67;;;17.60;;
76155;SDS011;64906;51.290;7.348;2023-05-10T07:43:16;23.38;;;17.25;;
76155;SDS011;64906;51.290;7.348;2023-05-10T07:45:41;22.33;;;16.83;;
76155;SDS011;64906;51.290;7.348;2023-05-10T07:48:07;24.00;;;17.67;;
76155;SDS011;64906;51.290;7.348;2023-05-10T07:50:32;24.45;;;17.25;;
76155;SDS011;64906;51.290;7.348;2023-05-10T07:52:58;25.13;;;16.90;;
76155;SDS011;64906;51.290;7.348;2023-05-10T07:55:23;22.45;;;16.75;;
76155;SDS011;64906;51.290;7.348;2023-05-10T07:57:48;28.45;;;19.42;;
76155;SDS011;64906;51.290;7.348;2023-05-10T08:00:16;24.33;;;17.80;;
76155;SDS011;64906;51.290;7.348;2023-05-10T08:02:43;27.80;;;17.60;;
76155;SDS011;64906;51.290;7.348;2023-05-10T08:05:08;30.27;;;21.20;;
76155;SDS011;64906;51.290;7.348;2023-05-10T08:07:34;34.10;;;22.85;;
76155;SDS011;64906;51.290;7.348;2023-05-10T08:09:59;34.22;;;23.85;;
76155;SDS011;64906;51.290;7.348;2023-05-10T08:12:25;36.33;;;23.90;;
76155;SDS011;64906;51.290;7.348;2023-05-10T08:14:50;38.27;;;24.77;;
76155;SDS011;64906;51.290;7.348;2023-05-10T08:17:15;37.03;;;25.23;;
76155;SDS011;64906;51.290;7.348;2023-05-10T08:19:41;37.58;;;24.70;;
76155;SDS011;64906;51.290;7.348;2023-05-10T08:22:06;37.50;;;24.63;;
76155;SDS011;64906;51.290;7.348;2023-05-10T08:24:31;38.97;;;25.13;;
76155;SDS011;64906;51.290;7.348;2023-05-10T08:26:57;38.92;;;25.17;;
76155;SDS011;64906;51.290;7.348;2023-05-10T08:29:22;40.33;;;27.17;;
76155;SDS011;64906;51.290;7.348;2023-05-10T08:31:48;38.40;;;25.17;;
76155;SDS011;64906;51.290;7.348;2023-05-10T08:34:13;37.95;;;24.90;;
76155;SDS011;64906;51.290;7.348;2023-05-10T08:36:38;38.50;;;24.37;;
76155;SDS011;64906;51.290;7.348;2023-05-10T08:39:04;36.90;;;25.23;;
76155;SDS011;64906;51.290;7.348;2023-05-10T08:41:29;37.65;;;25.40;;
76155;SDS011;64906;51.290;7.348;2023-05-10T08:43:58;39.65;;;24.95;;
76155;SDS011;64906;51.290;7.348;2023-05-10T08:46:24;37.60;;;25.40;;
76155;SDS011;64906;51.290;7.348;2023-05-10T08:48:51;38.22;;;26.67;;
76155;SDS011;64906;51.290;7.348;2023-05-10T08:51:19;38.17;;;24.63;;
76155;SDS011;64906;51.290;7.348;2023-05-10T08:53:47;41.20;;;26.00;;
76155;SDS011;64906;51.290;7.348;2023-05-10T08:56:13;41.40;;;27.00;;
76155;SDS011;64906;51.290;7.348;2023-05-10T08:58:40;38.22;;;26.02;;
76155;SDS011;64906;51.290;7.348;2023-05-10T09:01:06;38.03;;;25.80;;
76155;SDS011;64906;51.290;7.348;2023-05-10T09:03:33;37.55;;;24.98;;
76155;SDS011;64906;51.290;7.348;2023-05-10T09:05:58;38.60;;;27.47;;
76155;SDS011;64906;51.290;7.348;2023-05-10T09:08:24;40.43;;;28.73;;
76155;SDS011;64906;51.290;7.348;2023-05-10T09:10:50;40.65;;;25.90;;
76155;SDS011;64906;51.290;7.348;2023-05-10T09:13:17;41.45;;;26.40;;
76155;SDS011;64906;51.290;7.348;2023-05-10T09:15:44;35.97;;;25.40;;
76155;SDS011;64906;51.290;7.348;2023-05-10T09:18:10;38.95;;;25.80;;
76155;SDS011;64906;51.290;7.348;2023-05-10T09:20:36;37.45;;;25.58;;
76155;SDS011;64906;51.290;7.348;2023-05-10T09:23:01;39.43;;;26.97;;
76155;SDS011;64906;51.290;7.348;2023-05-10T09:25:30;38.63;;;26.75;;
76155;SDS011;64906;51.290;7.348;2023-05-10T09:27:58;36.72;;;25.55;;
76155;SDS011;64906;51.290;7.348;2023-05-10T09:30:27;37.38;;;25.70;;
76155;SDS011;64906;51.290;7.348;2023-05-10T09:32:54;38.97;;;26.73;;
76155;SDS011;64906;51.290;7.348;2023-05-10T09:35:21;38.75;;;25.92;;
76155;SDS011;64906;51.290;7.348;2023-05-10T09:37:51;40.15;;;25.67;;
76155;SDS011;64906;51.290;7.348;2023-05-10T09:40:22;40.60;;;28.08;;
76155;SDS011;64906;51.290;7.348;2023-05-10T09:45:20;50.67;;;33.30;;
76155;SDS011;64906;51.290;7.348;2023-05-10T09:47:46;55.30;;;35.05;;
76155;SDS011;64906;51.290;7.348;2023-05-10T09:50:12;52.03;;;35.85;;
76155;SDS011;64906;51.290;7.348;2023-05-10T09:55:12;55.03;;;37.85;;
76155;SDS011;64906;51.290;7.348;2023-05-10T09:57:38;54.15;;;36.00;;
76155;SDS011;64906;51.290;7.348;2023-05-10T10:00:04;58.30;;;40.10;;
76155;SDS011;64906;51.290;7.348;2023-05-10T10:02:31;59.20;;;38.13;;
76155;SDS011;64906;51.290;7.348;2023-05-10T10:04:56;58.75;;;38.95;;
76155;SDS011;64906;51.290;7.348;2023-05-10T10:07:22;57.23;;;37.53;;
76155;SDS011;64906;51.290;7.348;2023-05-10T10:09:49;58.63;;;37.95;;
76155;SDS011;64906;51.290;7.348;2023-05-10T10:12:15;56.42;;;38.53;;
76155;SDS011;64906;51.290;7.348;2023-05-10T10:14:40;57.57;;;37.00;;
76155;SDS011;64906;51.290;7.348;2023-05-10T10:17:06;54.67;;;37.17;;
76155;SDS011;64906;51.290;7.348;2023-05-10T10:19:32;56.28;;;37.60;;
76155;SDS011;64906;51.290;7.348;2023-05-10T10:21:59;52.67;;;35.08;;
76155;SDS011;64906;51.290;7.348;2023-05-10T10:24:25;54.75;;;36.78;;
76155;SDS011;64906;51.290;7.348;2023-05-10T10:26:50;59.57;;;37.40;;
76155;SDS011;64906;51.290;7.348;2023-05-10T10:34:32;53.03;;;34.72;;
76155;SDS011;64906;51.290;7.348;2023-05-10T10:36:58;55.00;;;36.50;;
76155;SDS011;64906;51.290;7.348;2023-05-10T10:39:29;54.80;;;35.05;;
76155;SDS011;64906;51.290;7.348;2023-05-10T10:41:56;51.92;;;34.08;;
76155;SDS011;64906;51.290;7.348;2023-05-10T10:44:23;52.08;;;35.47;;
76155;SDS011;64906;51.290;7.348;2023-05-10T10:47:02;50.70;;;34.05;;
76155;SDS011;64906;51.290;7.348;2023-05-10T10:55:27;51.45;;;34.72;;
76155;SDS011;64906;51.290;7.348;2023-05-10T11:00:36;50.53;;;33.33;;
76155;SDS011;64906;51.290;7.348;2023-05-10T11:03:05;48.63;;;33.13;;
76155;SDS011;64906;51.290;7.348;2023-05-10T11:05:42;51.10;;;33.40;;
76155;SDS011;64906;51.290;7.348;2023-05-10T11:08:10;49.17;;;33.53;;
76155;SDS011;64906;51.290;7.348;2023-05-10T11:10:37;51.97;;;33.90;;
76155;SDS011;64906;51.290;7.348;2023-05-10T11:13:08;49.15;;;32.90;;
76155;SDS011;64906;51.290;7.348;2023-05-10T11:15:36;50.38;;;33.63;;
76155;SDS011;64906;51.290;7.348;2023-05-10T11:18:24;46.40;;;31.02;;
76155;SDS011;64906;51.290;7.348;2023-05-10T11:20:52;47.75;;;32.45;;
76155;SDS011;64906;51.290;7.348;2023-05-10T11:23:21;49.17;;;32.33;;
76155;SDS011;64906;51.290;7.348;2023-05-10T11:25:47;47.38;;;32.20;;
76155;SDS011;64906;51.290;7.348;2023-05-10T11:28:16;46.28;;;31.92;;
76155;SDS011;64906;51.290;7.348;2023-05-10T11:30:43;46.60;;;31.38;;
76155;SDS011;64906;51.290;7.348;2023-05-10T11:33:09;46.42;;;31.42;;
76155;SDS011;64906;51.290;7.348;2023-05-10T11:35:40;47.33;;;31.63;;
76155;SDS011;64906;51.290;7.348;2023-05-10T11:38:09;45.85;;;30.77;;
76155;SDS011;64906;51.290;7.348;2023-05-10T11:40:35;44.67;;;30.17;;
76155;SDS011;64906;51.290;7.348;2023-05-10T11:43:02;45.17;;;30.55;;
76155;SDS011;64906;51.290;7.348;2023-05-10T11:45:28;46.10;;;31.25;;
76155;SDS011;64906;51.290;7.348;2023-05-10T11:47:57;45.65;;;30.67;;
76155;SDS011;64906;51.290;7.348;2023-05-10T11:50:22;44.10;;;29.45;;
76155;SDS011;64906;51.290;7.348;2023-05-10T11:52:54;42.50;;;30.23;;
76155;SDS011;64906;51.290;7.348;2023-05-10T11:55:21;47.78;;;30.48;;
76155;SDS011;64906;51.290;7.348;2023-05-10T11:57:47;44.83;;;29.75;;
76155;SDS011;64906;51.290;7.348;2023-05-10T12:00:13;42.25;;;29.38;;
76155;SDS011;64906;51.290;7.348;2023-05-10T12:02:39;44.92;;;30.27;;
76155;SDS011;64906;51.290;7.348;2023-05-10T12:05:05;43.90;;;30.60;;
76155;SDS011;64906;51.290;7.348;2023-05-10T12:07:31;44.15;;;29.75;;
76155;SDS011;64906;51.290;7.348;2023-05-10T12:10:04;42.38;;;29.63;;
76155;SDS011;64906;51.290;7.348;2023-05-10T12:12:37;44.42;;;29.52;;
76155;SDS011;64906;51.290;7.348;2023-05-10T12:15:03;39.80;;;28.42;;
76155;SDS011;64906;51.290;7.348;2023-05-10T12:17:31;41.40;;;28.83;;
76155;SDS011;64906;51.290;7.348;2023-05-10T12:20:12;40.20;;;28.60;;
76155;SDS011;64906;51.290;7.348;2023-05-10T12:22:52;42.58;;;28.25;;
76155;SDS011;64906;51.290;7.348;2023-05-10T12:25:22;42.83;;;28.58;;
76155;SDS011;64906;51.290;7.348;2023-05-10T12:27:53;42.00;;;28.67;;
76155;SDS011;64906;51.290;7.348;2023-05-10T12:30:29;43.10;;;30.88;;
76155;SDS011;64906;51.290;7.348;2023-05-10T12:35:46;44.58;;;29.85;;
76155;SDS011;64906;51.290;7.348;2023-05-10T12:38:29;41.08;;;28.27;;
76155;SDS011;64906;51.290;7.348;2023-05-10T12:41:00;41.83;;;28.73;;
76155;SDS011;64906;51.290;7.348;2023-05-10T12:43:29;37.95;;;26.75;;
76155;SDS011;64906;51.290;7.348;2023-05-10T12:45:55;40.33;;;27.70;;
76155;SDS011;64906;51.290;7.348;2023-05-10T12:48:21;40.40;;;26.92;;
76155;SDS011;64906;51.290;7.348;2023-05-10T12:50:46;40.97;;;28.17;;
76155;SDS011;64906;51.290;7.348;2023-05-10T12:53:15;38.63;;;26.80;;
76155;SDS011;64906;51.290;7.348;2023-05-10T12:55:41;37.60;;;26.88;;
76155;SDS011;64906;51.290;7.348;2023-05-10T12:58:07;38.17;;;26.92;;
76155;SDS011;64906;51.290;7.348;2023-05-10T13:00:32;38.30;;;28.17;;
76155;SDS011;64906;51.290;7.348;2023-05-10T13:02:58;37.10;;;25.80;;
76155;SDS011;64906;51.290;7.348;2023-05-10T13:05:23;39.25;;;25.15;;
76155;SDS011;64906;51.290;7.348;2023-05-10T13:07:49;36.43;;;25.63;;
76155;SDS011;64906;51.290;7.348;2023-05-10T13:10:14;36.67;;;25.30;;
76155;SDS011;64906;51.290;7.348;2023-05-10T13:12:39;40.63;;;27.30;;
76155;SDS011;64906;51.290;7.348;2023-05-10T13:15:05;39.60;;;26.85;;
76155;SDS011;64906;51.290;7.348;2023-05-10T13:17:31;38.15;;;25.25;;
76155;SDS011;64906;51.290;7.348;2023-05-10T13:19:57;39.10;;;26.38;;
76155;SDS011;64906;51.290;7.348;2023-05-10T13:22:22;38.67;;;25.23;;
76155;SDS011;64906;51.290;7.348;2023-05-10T13:24:47;36.87;;;25.37;;
76155;SDS011;64906;51.290;7.348;2023-05-10T13:27:12;38.10;;;27.30;;
76155;SDS011;64906;51.290;7.348;2023-05-10T13:29:38;37.45;;;25.85;;
76155;SDS011;64906;51.290;7.348;2023-05-10T13:32:03;37.73;;;26.60;;
76155;SDS011;64906;51.290;7.348;2023-05-10T13:34:29;35.80;;;24.58;;
76155;SDS011;64906;51.290;7.348;2023-05-10T13:36:54;37.30;;;25.23;;
76155;SDS011;64906;51.290;7.348;2023-05-10T13:39:21;34.63;;;24.55;;
76155;SDS011;64906;51.290;7.348;2023-05-10T13:41:46;35.83;;;25.73;;
76155;SDS011;64906;51.290;7.348;2023-05-10T13:44:12;37.63;;;24.38;;
76155;SDS011;64906;51.290;7.348;2023-05-10T13:46:39;34.05;;;23.75;;
76155;SDS011;64906;51.290;7.348;2023-05-10T13:49:05;35.55;;;24.02;;
76155;SDS011;64906;51.290;7.348;2023-05-10T13:51:30;35.70;;;24.30;;
76155;SDS011;64906;51.290;7.348;2023-05-10T13:53:56;34.80;;;23.63;;
76155;SDS011;64906;51.290;7.348;2023-05-10T13:56:22;33.75;;;23.20;;
76155;SDS011;64906;51.290;7.348;2023-05-10T13:58:47;33.37;;;23.20;;
76155;SDS011;64906;51.290;7.348;2023-05-10T14:01:13;36.50;;;24.33;;
76155;SDS011;64906;51.290;7.348;2023-05-10T14:03:38;32.20;;;22.67;;
76155;SDS011;64906;51.290;7.348;2023-05-10T14:06:03;33.17;;;22.40;;
76155;SDS011;64906;51.290;7.348;2023-05-10T14:08:29;35.65;;;25.35;;
76155;SDS011;64906;51.290;7.348;2023-05-10T14:10:54;34.30;;;23.73;;
76155;SDS011;64906;51.290;7.348;2023-05-10T14:13:21;34.05;;;23.85;;
76155;SDS011;64906;51.290;7.348;2023-05-10T14:15:46;33.00;;;22.45;;
76155;SDS011;64906;51.290;7.348;2023-05-10T14:18:12;31.83;;;23.13;;
76155;SDS011;64906;51.290;7.348;2023-05-10T14:20:37;31.73;;;22.80;;
76155;SDS011;64906;51.290;7.348;2023-05-10T14:23:02;32.63;;;22.37;;
76155;SDS011;64906;51.290;7.348;2023-05-10T14:25:28;31.70;;;22.00;;
76155;SDS011;64906;51.290;7.348;2023-05-10T14:27:53;32.80;;;21.85;;
76155;SDS011;64906;51.290;7.348;2023-05-10T14:30:19;31.27;;;21.83;;
76155;SDS011;64906;51.290;7.348;2023-05-10T14:32:45;32.03;;;22.05;;
76155;SDS011;64906;51.290;7.348;2023-05-10T14:35:11;32.45;;;22.48;;
76155;SDS011;64906;51.290;7.348;2023-05-10T14:37:37;32.85;;;21.80;;
76155;SDS011;64906;51.290;7.348;2023-05-10T14:40:03;33.42;;;23.73;;
76155;SDS011;64906;51.290;7.348;2023-05-10T14:42:29;32.63;;;22.40;;
76155;SDS011;64906;51.290;7.348;2023-05-10T14:44:55;29.50;;;21.52;;
76155;SDS011;64906;51.290;7.348;2023-05-10T14:47:21;29.92;;;22.92;;
76155;SDS011;64906;51.290;7.348;2023-05-10T14:49:46;32.08;;;21.95;;
76155;SDS011;64906;51.290;7.348;2023-05-10T14:52:12;33.73;;;22.43;;